createdAt,value
2018-12-18T00:01:44.245Z,102.07
2018-12-18T00:03:46.469Z,100.67
2018-12-18T00:05:48.817Z,107.35
2018-12-18T00:07:51.034Z,100.20
2018-12-18T00:09:54.375Z,104.58
2018-12-18T00:11:59.354Z,102.53
2018-12-18T00:14:00.946Z,107.95
2018-12-18T00:16:03.241Z,90.28
2018-12-18T00:18:05.506Z,95.80
2018-12-18T00:20:07.758Z,108.40
2018-12-18T00:22:10.091Z,102.12
2018-12-18T00:24:12.361Z,99.10
2018-12-18T00:26:14.543Z,111.45
2018-12-18T00:28:16.809Z,107.72
2018-12-18T00:30:19.128Z,103.72
2018-12-18T00:32:21.284Z,111.00
2018-12-18T00:34:23.640Z,109.90
2018-12-18T00:36:25.809Z,107.00
2018-12-18T00:38:28.076Z,115.35
2018-12-18T00:40:30.274Z,108.95
2018-12-18T00:42:33.334Z,111.65
2018-12-18T00:44:35.662Z,132.65
2018-12-18T00:46:38.013Z,116.35
2018-12-18T00:48:40.354Z,130.07
2018-12-18T00:50:42.614Z,118.30
2018-12-18T00:52:44.782Z,124.55
2018-12-18T00:54:47.230Z,124.62
2018-12-18T00:56:49.354Z,127.55
2018-12-18T00:58:51.702Z,122.00
2018-12-18T01:00:54.323Z,115.88
2018-12-18T01:02:56.791Z,117.57
2018-12-18T01:04:58.934Z,119.55
2018-12-18T01:07:01.094Z,110.50
2018-12-18T01:09:05.616Z,121.90
2018-12-18T01:11:07.790Z,131.60
2018-12-18T01:13:10.010Z,112.12
2018-12-18T01:15:12.260Z,114.67
2018-12-18T01:17:14.381Z,119.45
2018-12-18T01:19:16.632Z,132.93
2018-12-18T01:21:18.799Z,139.22
2018-12-18T01:23:21.077Z,128.27
2018-12-18T01:25:23.234Z,124.07
2018-12-18T01:27:25.498Z,135.07
2018-12-18T01:29:27.674Z,131.67
2018-12-18T01:31:29.938Z,126.87
2018-12-18T01:33:32.096Z,127.67
2018-12-18T01:35:34.267Z,112.15
2018-12-18T01:37:36.748Z,140.15
2018-12-18T01:39:39.000Z,122.47
2018-12-18T01:41:41.164Z,124.85
2018-12-18T01:43:43.566Z,131.00
2018-12-18T01:45:45.705Z,110.30
2018-12-18T01:47:47.864Z,128.85
2018-12-18T01:49:50.095Z,112.55
2018-12-18T01:51:52.225Z,124.87
2018-12-18T01:53:54.342Z,129.47
2018-12-18T01:55:56.758Z,116.30
2018-12-18T01:57:58.942Z,123.85
2018-12-18T02:00:01.213Z,113.97
2018-12-18T02:02:03.574Z,116.35
2018-12-18T02:04:06.235Z,105.22
2018-12-18T02:06:08.904Z,111.60
2018-12-18T02:08:11.113Z,114.92
2018-12-18T02:10:13.441Z,109.63
2018-12-18T02:12:15.669Z,131.05
2018-12-18T02:14:17.838Z,130.25
2018-12-18T02:16:19.974Z,119.37
2018-12-18T02:18:22.280Z,130.80
2018-12-18T02:20:24.463Z,137.72
2018-12-18T02:22:26.634Z,122.90
2018-12-18T02:24:28.883Z,119.72
2018-12-18T02:26:31.041Z,122.00
2018-12-18T02:28:33.428Z,130.07
2018-12-18T02:30:35.700Z,129.65
2018-12-18T02:32:38.017Z,120.75
2018-12-18T02:34:40.169Z,128.30
2018-12-18T02:36:42.324Z,139.25
2018-12-18T02:38:44.453Z,129.40
2018-12-18T02:40:46.715Z,123.55
2018-12-18T02:42:49.026Z,132.90
2018-12-18T02:44:51.169Z,126.40
2018-12-18T02:46:53.333Z,109.20
2018-12-18T02:48:55.807Z,130.60
2018-12-18T02:50:57.950Z,115.15
2018-12-18T02:53:00.110Z,116.93
2018-12-18T02:55:02.741Z,127.92
2018-12-18T02:57:05.050Z,118.08
2018-12-18T02:59:07.198Z,109.52
2018-12-18T03:01:09.381Z,120.70
2018-12-18T03:03:11.527Z,124.78
2018-12-18T03:05:13.694Z,125.27
2018-12-18T03:07:16.121Z,115.40
2018-12-18T03:09:18.274Z,115.28
2018-12-18T03:11:20.741Z,112.52
2018-12-18T03:13:22.897Z,115.70
2018-12-18T03:15:25.045Z,100.95
2018-12-18T03:17:27.925Z,114.20
2018-12-18T03:19:30.398Z,106.30
2018-12-18T03:21:32.637Z,95.77
2018-12-18T03:23:34.933Z,110.92
2018-12-18T03:25:37.127Z,123.65
2018-12-18T03:27:39.373Z,115.95
2018-12-18T03:29:41.665Z,115.00
2018-12-18T03:47:44.382Z,99.77
2018-12-18T03:49:46.575Z,98.42
2018-12-18T03:51:48.702Z,107.58
2018-12-18T03:53:51.037Z,104.00
2018-12-18T03:55:53.309Z,117.08
2018-12-18T03:57:55.466Z,120.57
2018-12-18T03:59:57.728Z,118.42
2018-12-18T04:01:59.881Z,108.27
2018-12-18T04:04:02.007Z,114.20
2018-12-18T04:06:04.252Z,113.28
2018-12-18T04:08:06.525Z,109.87
2018-12-18T04:10:08.931Z,108.17
2018-12-18T04:12:15.815Z,106.37
2018-12-18T04:14:18.039Z,97.95
2018-12-18T04:16:20.273Z,107.95
2018-12-18T04:18:22.818Z,91.95
2018-12-18T04:20:25.024Z,113.10
2018-12-18T04:22:27.167Z,118.62
2018-12-18T04:24:29.505Z,109.97
2018-12-18T04:26:31.831Z,108.00
2018-12-18T04:28:33.946Z,106.15
2018-12-18T04:30:36.534Z,110.22
2018-12-18T04:32:38.652Z,109.05
2018-12-18T04:34:43.073Z,107.95
2018-12-18T04:36:45.104Z,93.45
2018-12-18T04:38:47.334Z,103.17
2018-12-18T04:40:49.509Z,102.38
2018-12-18T04:42:51.676Z,101.47
2018-12-18T04:44:54.031Z,95.53
2018-12-18T04:46:56.210Z,92.82
2018-12-18T04:48:58.375Z,98.42
2018-12-18T04:51:00.771Z,103.90
2018-12-18T04:53:03.138Z,82.80
2018-12-18T04:55:05.392Z,92.70
2018-12-18T04:57:07.596Z,78.02
2018-12-18T04:59:09.716Z,85.55
2018-12-18T05:01:11.854Z,80.80
2018-12-18T05:03:14.202Z,82.27
2018-12-18T05:05:16.314Z,74.72
2018-12-18T05:07:18.646Z,72.32
2018-12-18T05:09:21.341Z,76.80
2018-12-18T05:11:23.465Z,81.30
2018-12-18T05:13:25.643Z,79.12
2018-12-18T05:15:27.807Z,75.12
2018-12-18T05:17:30.065Z,82.57
2018-12-18T05:19:32.349Z,67.08
2018-12-18T05:21:34.636Z,82.55
2018-12-18T05:23:36.809Z,71.30
2018-12-18T05:25:39.027Z,65.25
2018-12-18T05:27:41.214Z,64.67
2018-12-18T05:29:43.415Z,67.45
2018-12-18T05:31:45.547Z,69.75
2018-12-18T05:33:47.863Z,72.12
2018-12-18T05:35:50.042Z,72.87
2018-12-18T05:37:52.250Z,62.48
2018-12-18T05:39:54.438Z,67.62
2018-12-18T05:41:56.587Z,70.25
2018-12-18T05:43:58.897Z,65.78
2018-12-18T05:46:01.104Z,70.75
2018-12-18T05:48:03.341Z,63.23
2018-12-18T05:50:06.245Z,71.55
2018-12-18T05:52:08.358Z,74.47
2018-12-18T05:54:10.438Z,77.45
2018-12-18T05:56:12.757Z,63.95
2018-12-18T05:58:14.856Z,65.57
2018-12-18T06:00:17.092Z,66.20
2018-12-18T06:02:19.342Z,74.67
2018-12-18T06:04:21.661Z,63.68
2018-12-18T06:06:23.769Z,66.92
2018-12-18T06:08:27.146Z,70.40
2018-12-18T06:10:29.274Z,60.92
2018-12-18T06:12:31.357Z,63.73
2018-12-18T06:14:33.568Z,65.65
2018-12-18T06:16:35.889Z,60.30
2018-12-18T06:18:38.086Z,60.38
2018-12-18T06:20:40.225Z,68.67
2018-12-18T06:22:42.316Z,61.33
2018-12-18T06:24:44.532Z,64.35
2018-12-18T06:26:50.466Z,64.42
2018-12-18T06:28:52.584Z,66.02
2018-12-18T06:30:54.828Z,62.90
2018-12-18T06:32:56.999Z,63.33
2018-12-18T06:34:59.146Z,68.90
2018-12-18T06:37:01.236Z,62.50
2018-12-18T06:39:06.048Z,61.15
2018-12-18T06:41:08.157Z,72.12
2018-12-18T06:43:10.256Z,61.75
2018-12-18T06:45:12.509Z,67.00
2018-12-18T06:47:14.825Z,65.37
2018-12-18T06:49:17.073Z,75.50
2018-12-18T06:51:19.269Z,75.60
2018-12-18T06:53:21.366Z,67.97
2018-12-18T06:55:23.467Z,63.33
2018-12-18T06:57:25.580Z,74.25
2018-12-18T06:59:27.788Z,59.05
2018-12-18T07:01:30.001Z,61.15
2018-12-18T07:19:34.669Z,59.08
2018-12-18T07:21:36.909Z,58.78
2018-12-18T07:23:39.174Z,68.57
2018-12-18T07:25:41.293Z,71.47
2018-12-18T07:27:43.449Z,61.85
2018-12-18T07:29:45.808Z,68.50
2018-12-18T07:31:48.017Z,72.78
2018-12-18T07:33:50.147Z,59.77
2018-12-18T07:35:52.257Z,81.70
2018-12-18T07:37:55.742Z,69.50
2018-12-18T07:39:57.868Z,68.15
2018-12-18T07:41:59.965Z,64.10
2018-12-18T07:44:02.209Z,68.70
2018-12-18T07:46:04.305Z,75.87
2018-12-18T07:48:06.710Z,70.30
2018-12-18T07:50:09.015Z,78.92
2018-12-18T07:52:11.336Z,73.83
2018-12-18T07:54:13.442Z,76.80
2018-12-18T07:56:15.627Z,77.75
2018-12-18T07:58:18.096Z,66.47
2018-12-18T08:00:20.445Z,79.32
2018-12-18T08:02:22.562Z,81.37
2018-12-18T08:04:24.757Z,67.47
2018-12-18T08:06:26.902Z,77.27
2018-12-18T08:08:29.188Z,73.62
2018-12-18T08:10:31.421Z,66.67
2018-12-18T08:12:33.560Z,65.22
2018-12-18T08:14:35.789Z,88.10
2018-12-18T08:16:37.981Z,76.77
2018-12-18T08:18:40.132Z,78.07
2018-12-18T08:20:42.220Z,70.22
2018-12-18T08:22:44.336Z,74.03
2018-12-18T08:24:46.612Z,90.90
2018-12-18T08:26:50.578Z,85.72
2018-12-18T08:28:52.673Z,73.28
2018-12-18T08:30:55.271Z,70.32
2018-12-18T08:32:57.383Z,73.15
2018-12-18T08:35:01.219Z,83.50
2018-12-18T08:37:03.640Z,89.42
2018-12-18T08:39:07.860Z,80.67
2018-12-18T08:41:09.979Z,82.70
2018-12-18T08:43:12.366Z,74.53
2018-12-18T08:45:14.516Z,71.53
2018-12-18T08:47:16.637Z,79.45
2018-12-18T08:49:19.091Z,73.20
2018-12-18T08:51:21.213Z,68.05
2018-12-18T08:53:23.398Z,71.45
2018-12-18T08:55:25.596Z,79.40
2018-12-18T08:57:27.713Z,79.53
2018-12-18T08:59:29.845Z,72.65
2018-12-18T09:01:31.937Z,69.80
2018-12-18T09:03:34.005Z,67.25
2018-12-18T09:05:42.979Z,56.68
2018-12-18T09:07:41.202Z,59.98
2018-12-18T09:09:43.445Z,60.52
2018-12-18T09:11:46.407Z,70.60
2018-12-18T09:13:48.576Z,71.20
2018-12-18T09:15:56.487Z,64.27
2018-12-18T09:17:58.816Z,73.02
2018-12-18T09:20:00.975Z,59.67
2018-12-18T09:22:03.702Z,73.00
2018-12-18T09:24:05.840Z,69.77
2018-12-18T09:26:08.139Z,61.02
2018-12-18T09:28:10.304Z,60.35
2018-12-18T09:30:14.629Z,62.90
2018-12-18T09:32:18.012Z,54.23
2018-12-18T09:34:20.171Z,54.50
2018-12-18T09:36:22.536Z,45.55
2018-12-18T09:38:30.463Z,52.35
2018-12-18T09:40:38.328Z,52.90
2018-12-18T09:42:46.335Z,58.13
2018-12-18T09:44:48.696Z,51.33
2018-12-18T09:46:56.561Z,55.78
2018-12-18T09:48:58.713Z,50.10
2018-12-18T09:51:00.868Z,53.98
2018-12-18T09:53:03.152Z,49.23
2018-12-18T09:55:05.515Z,54.13
2018-12-18T09:57:13.625Z,52.10
2018-12-18T09:59:15.970Z,54.98
2018-12-18T10:01:18.146Z,50.65
2018-12-18T10:03:20.278Z,49.42
2018-12-18T10:05:22.451Z,50.67
2018-12-18T10:07:24.618Z,48.55
2018-12-18T10:09:26.801Z,54.50
2018-12-18T10:11:29.057Z,51.25
2018-12-18T10:13:31.340Z,49.00
2018-12-18T10:15:33.625Z,46.08
2018-12-18T10:17:35.836Z,48.83
2018-12-18T10:19:38.033Z,46.45
2018-12-18T10:21:40.161Z,60.25
2018-12-18T10:23:42.312Z,54.40
2018-12-18T10:25:44.600Z,62.35
2018-12-18T10:27:46.838Z,54.75
2018-12-18T10:29:49.003Z,50.33
2018-12-18T10:31:51.144Z,49.75
2018-12-18T10:33:53.459Z,51.00
2018-12-18T10:35:55.646Z,54.13
2018-12-18T10:37:57.792Z,46.53
2018-12-18T10:39:59.989Z,53.95
2018-12-18T10:42:02.606Z,52.88
2018-12-18T10:44:04.840Z,50.63
2018-12-18T10:46:07.004Z,47.35
2018-12-18T10:48:09.220Z,45.60
2018-12-18T10:50:11.483Z,50.23
2018-12-18T10:52:13.633Z,45.90
2018-12-18T10:54:15.868Z,49.33
2018-12-18T10:56:17.996Z,47.83
2018-12-18T10:58:23.920Z,48.80
2018-12-18T11:00:30.280Z,41.85
2018-12-18T11:02:32.430Z,48.58
2018-12-18T11:04:34.722Z,52.00
2018-12-18T11:06:36.939Z,58.58
2018-12-18T11:08:39.312Z,58.13
2018-12-18T11:10:41.505Z,52.98
2018-12-18T11:12:48.304Z,56.95
2018-12-18T11:14:50.464Z,58.52
2018-12-18T11:16:52.710Z,47.85
2018-12-18T11:18:54.855Z,57.58
2018-12-18T11:20:57.033Z,58.92
2018-12-18T11:22:59.193Z,55.55
2018-12-18T11:25:01.429Z,51.37
2018-12-18T11:27:03.644Z,67.08
2018-12-18T11:29:07.230Z,66.30
2018-12-18T15:17:14.614Z,27.07
2018-12-18T15:19:17.024Z,30.68
2018-12-18T15:21:19.192Z,24.10
2018-12-18T15:23:21.413Z,36.00
2018-12-18T15:25:23.610Z,26.93
2018-12-18T15:27:25.769Z,29.32
2018-12-18T15:29:27.961Z,23.75
2018-12-18T15:31:30.169Z,24.95
2018-12-18T15:33:32.548Z,23.85
2018-12-18T15:35:34.917Z,23.87
2018-12-18T15:37:53.207Z,21.07
2018-12-18T15:42:23.745Z,22.37
2018-12-18T15:44:36.709Z,23.62
2018-12-18T15:46:43.072Z,16.87
2018-12-18T15:48:45.352Z,23.65
2018-12-18T15:50:47.513Z,27.48
2018-12-18T15:52:49.808Z,21.15
2018-12-18T15:54:52.311Z,23.27
2018-12-18T15:56:58.321Z,24.37
2018-12-18T15:59:01.686Z,18.30
2018-12-18T16:01:04.001Z,21.50
2018-12-18T16:03:06.173Z,20.37
2018-12-18T16:05:08.316Z,18.27
2018-12-18T16:07:15.993Z,20.52
2018-12-18T16:09:14.657Z,24.20
2018-12-18T16:11:16.861Z,23.40
2018-12-18T16:13:22.733Z,20.25
2018-12-18T16:15:24.843Z,20.45
2018-12-18T16:17:27.246Z,23.52
2018-12-18T16:19:30.137Z,24.87
2018-12-18T16:21:32.331Z,17.98
2018-12-18T16:23:35.696Z,18.55
2018-12-18T16:25:37.878Z,19.40
2018-12-18T16:27:40.197Z,18.52
2018-12-18T16:29:42.702Z,19.95
2018-12-18T16:31:44.985Z,17.30
2018-12-18T16:33:47.178Z,19.75
2018-12-18T16:35:49.503Z,19.25
2018-12-18T16:37:51.849Z,20.12
2018-12-18T16:39:54.046Z,24.63
2018-12-18T16:41:56.379Z,18.15
2018-12-18T16:47:36.971Z,24.25
2018-12-18T16:49:39.595Z,18.67
2018-12-18T16:51:45.395Z,16.48
2018-12-18T16:53:48.102Z,19.55
2018-12-18T16:55:50.566Z,19.12
2018-12-18T16:57:53.434Z,22.22
2018-12-18T16:59:55.634Z,21.82
2018-12-18T17:01:57.891Z,20.02
2018-12-18T17:04:00.160Z,16.77
2018-12-18T17:06:02.466Z,21.70
2018-12-18T17:08:04.967Z,20.57
2018-12-18T17:10:07.310Z,16.48
2018-12-18T17:12:10.679Z,19.07
2018-12-18T17:14:13.139Z,17.35
2018-12-18T17:16:15.479Z,18.42
2018-12-18T17:18:17.692Z,17.42
2018-12-18T17:20:19.896Z,22.35
2018-12-18T17:22:22.611Z,24.07
2018-12-18T17:24:25.010Z,19.15
2018-12-18T17:26:27.221Z,15.78
2018-12-18T17:28:29.429Z,17.27
2018-12-18T17:30:31.617Z,19.40
2018-12-18T17:32:33.858Z,22.13
2018-12-18T17:34:37.133Z,23.40
2018-12-18T17:36:39.371Z,17.20
2018-12-18T17:38:41.549Z,19.73
2018-12-18T17:40:44.212Z,21.42
2018-12-18T17:42:46.496Z,18.52
2018-12-18T17:44:48.684Z,19.02
2018-12-18T17:46:50.964Z,21.55
2018-12-18T17:48:53.158Z,18.60
2018-12-18T17:50:55.463Z,19.67
2018-12-18T17:52:57.853Z,28.50
2018-12-18T17:55:00.108Z,18.92
2018-12-18T17:57:08.281Z,23.35
2018-12-18T17:59:10.889Z,22.58
2018-12-18T18:03:32.665Z,17.85
2018-12-18T18:05:36.119Z,19.23
2018-12-18T18:07:42.979Z,18.30
2018-12-18T18:12:31.983Z,20.90
2018-12-18T18:14:36.393Z,21.50
2018-12-18T18:16:38.625Z,19.35
2018-12-18T18:18:51.970Z,17.75
2018-12-18T18:23:36.880Z,21.75
2018-12-18T18:25:41.532Z,17.67
2018-12-18T20:47:40.784Z,22.98
2018-12-18T20:56:59.852Z,22.07
2018-12-18T20:59:02.155Z,26.07
2018-12-18T21:01:04.557Z,29.37
2018-12-18T21:03:06.994Z,25.35
2018-12-18T21:05:09.496Z,28.02
2018-12-18T21:07:11.709Z,24.70
2018-12-18T21:09:14.232Z,38.67
2018-12-18T21:11:16.373Z,30.88
2018-12-18T21:13:24.243Z,29.12
2018-12-18T21:15:26.412Z,28.83
2018-12-18T21:17:28.589Z,29.32
2018-12-18T21:19:30.756Z,29.05
2018-12-18T21:21:32.935Z,32.08
2018-12-18T21:23:35.106Z,30.70
2018-12-18T21:25:37.434Z,35.52
2018-12-18T21:27:39.697Z,33.15
2018-12-18T21:29:41.958Z,30.70
2018-12-18T21:31:44.296Z,39.30
2018-12-18T21:33:46.611Z,28.55
2018-12-18T21:35:48.917Z,34.63
2018-12-18T21:37:51.328Z,28.45
2018-12-18T21:39:53.582Z,28.27
2018-12-18T21:41:55.868Z,29.50
2018-12-18T21:43:58.678Z,28.17
2018-12-18T21:46:00.896Z,30.45
2018-12-18T21:48:03.208Z,27.87
2018-12-18T21:50:05.600Z,28.02
2018-12-18T21:52:07.801Z,28.45
2018-12-18T21:54:10.206Z,26.05
2018-12-18T21:56:12.457Z,28.07
2018-12-18T21:58:14.677Z,26.85
2018-12-18T22:00:16.858Z,30.45
2018-12-18T22:02:19.170Z,32.35
2018-12-18T22:04:21.533Z,30.20
2018-12-18T22:06:23.913Z,25.95
2018-12-18T22:08:26.151Z,23.52
2018-12-18T22:10:28.539Z,22.62
2018-12-18T22:12:30.801Z,25.10
2018-12-18T22:14:33.552Z,24.25
2018-12-18T22:16:36.021Z,22.22
2018-12-18T22:18:38.343Z,26.23
2018-12-18T22:20:40.763Z,22.40
2018-12-18T22:22:43.013Z,25.55
2018-12-18T22:24:45.573Z,22.27
2018-12-18T22:26:48.025Z,22.73
2018-12-18T22:28:50.368Z,23.42
2018-12-18T22:30:52.601Z,27.37
2018-12-18T22:32:54.793Z,27.02
2018-12-18T22:34:56.971Z,24.18
2018-12-18T22:36:59.275Z,20.43
2018-12-18T22:39:01.417Z,24.50
2018-12-18T22:41:03.589Z,22.62
2018-12-18T22:43:05.863Z,19.77
2018-12-18T22:45:08.564Z,26.60
2018-12-18T22:47:10.701Z,23.02
2018-12-18T22:49:12.877Z,20.75
2018-12-18T22:51:15.063Z,22.42
2018-12-18T22:53:17.389Z,30.05
2018-12-18T22:55:20.798Z,26.48
2018-12-18T22:57:23.061Z,21.82
2018-12-18T22:59:25.238Z,25.12
2018-12-18T23:01:33.044Z,37.90
2018-12-18T23:03:35.399Z,22.48
2018-12-18T23:05:37.660Z,22.25
2018-12-18T23:07:40.079Z,22.60
2018-12-18T23:09:42.300Z,23.98
2018-12-18T23:11:44.503Z,23.45
2018-12-18T23:13:48.205Z,27.98
2018-12-18T23:15:50.536Z,24.55
2018-12-18T23:17:52.708Z,25.08
2018-12-18T23:19:54.876Z,32.98
2018-12-18T23:21:57.060Z,28.38
2018-12-18T23:23:59.208Z,23.22
2018-12-18T23:26:01.372Z,29.42
2018-12-18T23:28:03.576Z,24.65
2018-12-18T23:30:05.961Z,32.80
2018-12-18T23:32:08.141Z,30.60
2018-12-18T23:34:10.360Z,31.15
2018-12-18T23:36:12.539Z,29.82
2018-12-18T23:38:14.711Z,25.52
2018-12-18T23:40:16.960Z,26.60
2018-12-18T23:42:19.140Z,28.32
2018-12-18T23:44:21.390Z,25.88
2018-12-18T23:46:23.520Z,27.77
2018-12-18T23:48:25.743Z,31.33
2018-12-18T23:50:28.091Z,28.87
2018-12-18T23:52:30.332Z,26.97
2018-12-18T23:54:32.444Z,28.60
2018-12-18T23:56:34.559Z,27.45
2018-12-18T23:58:36.913Z,29.70
